Bierbeek, Belgium
Current Conditions -  °F | °C
As of 4:25 AM on Monday 22 Dec 2014 (Local Time) from EBBE Reporting Station
Overcast Overcast  
Wind Chill:   Ceiling: 1100
Heat Index:   Visibility: 6mi
Dew Point:   Wind: 23mph
Humidity: 87%   Direction: 230°SW
Pressure: 30.18"   Gusts: 35mph
Location:  50.83°N, 4.76°E
Report Text: EBBE 220325Z AUTO 23020G30KT 9999 OVC011/// 08/06 Q1022 GRN
Loading
Personal Weather Stations






























Interactive Weather Map New forecast layout! Learn more

10-Day Weather Forecast

Advertisements
Track Severe Weather on mobile